Akhisar Airport

LTBT · 马尼萨省, 土耳其

使用的METAR站距离机场79 km。
罗盘
风向 的 风向 的 风向 到 风向 110° Akhisar Airport 13R/31L
风: 5 kt, 2 beaufort

4 kt

2 kt
改变
0 ft 2.000 4.000 6.000 8.000 10.000
Cloud Cloud
FEW 4.000
Cloud Cloud Cloud Cloud
SCT 10.000
METAR LTBL 231750Z 11005KT 070V140 9999 FEW040 SCT100 15/11 Q1020 NOSIG RMK RWY17 10005KT

METAR Akhisar Airport - LTBT

Akhisar Airport是,土耳其中的中型机场。 该机场位于纬度38,80946和经度27,83444。 该机场有一条跑道: 13R/31L. 本场的ICAO机场代码为LTBT。 机场在Istanbul FIR中。

该航空气象观测是针对Çiğli Airport在2024年2月23日 20:50, 当地时间进行的。

机场观察

风向为110°,速度为5 kt。 风向在070°和140°之间变化。

可见度为10 km 或者更多。

有几云在4.000 ft的高度 和 疏云,零星散落的云朵在10.000 ft的高度。 没有观察到天花板。

温度和风寒是15 °C。 露点为11 °C,相对湿度为77%。 海平面上的气压为1020 hPa (QNH)。

白天

今天,太阳从07:49升起,在18:54降落。 这适用于Akhisar Airport,世界夏令时可能有所不同。 当地时间与世界标准时间之间的时差为+3 小时。 当前,没有夏令时有效。

公司介绍

我们没有关于这个机场的公司信息。

体会

到Vliegles.nl去找飞行课程,跳伞和其他飞行体验。 浏览页面,了解Akhisar Airport附近所有可用的活动。 你也可以使用搜索功能来寻找你所在地附近的特定飞行课程、跳伞或其他飞行体验。

跑道

Id 标题 侧风 逆风 侧风 %
13R/31L 139°-319° 2 kt 4 kt 48 %

逆风成分最大的方向会被突出显示,并用于横风计算。 这并不一定意味着这个方向在使用。

乌云

4.000 ft FEW 几云
10.000 ft SCT 疏云,零星散落的云朵

温度 & 天气

温度 15 °C
露点 11 °C
相对湿度 77%
Kp-index 0 (0-9)

评论

RWY17 10005KT

白天

日出
07:52 (9:16)
中午
13:25
日落
18:57

小工具

你想在你的网站上有一个关于Akhisar Airport的当前航空天气(METAR)的小部件吗?

显示HTML代码
?>